createdAt,value
2018-02-17T00:00:23.898Z,0.10
2018-02-17T00:02:51.422Z,0.00
2018-02-17T00:05:18.966Z,0.10
2018-02-17T00:07:46.491Z,0.10
2018-02-17T00:10:14.034Z,0.20
2018-02-17T00:12:41.563Z,0.20
2018-02-17T00:15:09.107Z,0.20
2018-02-17T00:17:36.634Z,0.20
2018-02-17T00:20:04.183Z,0.30
2018-02-17T00:22:31.766Z,0.30
2018-02-17T00:24:59.357Z,0.30
2018-02-17T00:27:26.893Z,0.30
2018-02-17T00:29:54.417Z,0.30
2018-02-17T01:18:14.797Z,0.30
2018-02-17T01:20:42.321Z,-0.10
2018-02-17T01:23:10.742Z,-0.20
2018-02-17T01:25:38.309Z,-0.20
2018-02-17T01:28:05.857Z,-0.10
2018-02-17T01:30:33.426Z,0.00
2018-02-17T01:33:00.953Z,0.00
2018-02-17T01:35:29.257Z,0.10
2018-02-17T01:37:56.787Z,0.10
2018-02-17T01:40:25.089Z,0.20
2018-02-17T01:42:52.610Z,0.20
2018-02-17T01:45:20.153Z,0.20
2018-02-17T01:47:47.673Z,0.20
2018-02-17T01:50:27.046Z,0.20
2018-02-17T01:52:54.567Z,0.20
2018-02-17T01:55:22.109Z,0.20
2018-02-17T01:57:50.394Z,0.20
2018-02-17T02:00:18.862Z,0.20
2018-02-17T02:02:47.170Z,0.20
2018-02-17T02:05:14.714Z,0.20
2018-02-17T02:07:43.000Z,0.20
2018-02-17T02:10:10.543Z,0.20
2018-02-17T02:12:38.866Z,0.20
2018-02-17T02:15:06.417Z,0.20
2018-02-17T02:17:33.942Z,0.20
2018-02-17T02:20:02.249Z,0.20
2018-02-17T02:22:29.770Z,0.20
2018-02-17T02:24:57.318Z,0.20
2018-02-17T02:27:24.847Z,0.20
2018-02-17T02:29:52.410Z,0.20
2018-02-17T02:32:19.995Z,0.30
2018-02-17T02:34:47.489Z,0.30
2018-02-17T02:37:15.800Z,0.20
2018-02-17T02:39:43.370Z,0.20
2018-02-17T02:42:10.942Z,0.20
2018-02-17T02:44:38.466Z,0.20
2018-02-17T02:47:06.011Z,0.20
2018-02-17T02:49:34.299Z,0.30
2018-02-17T02:52:02.605Z,0.30
2018-02-17T02:54:30.131Z,0.30
2018-02-17T02:56:58.440Z,0.20
2018-02-17T02:59:25.968Z,0.20
2018-02-17T03:01:54.280Z,0.20
2018-02-17T03:04:21.811Z,0.20
2018-02-17T03:06:50.126Z,0.20
2018-02-17T03:09:17.654Z,0.20
2018-02-17T03:11:45.954Z,0.30
2018-02-17T03:14:13.522Z,0.20
2018-02-17T03:16:41.057Z,0.20
2018-02-17T03:19:08.582Z,0.20
2018-02-17T03:21:36.126Z,0.20
2018-02-17T03:24:03.642Z,0.20
2018-02-17T03:26:31.178Z,0.20
2018-02-17T03:28:59.499Z,0.10
2018-02-17T03:31:27.039Z,0.10
2018-02-17T03:33:54.566Z,0.20
2018-02-17T03:36:22.104Z,0.20
2018-02-17T03:38:49.642Z,0.20
2018-02-17T03:41:17.185Z,0.10
2018-02-17T03:43:44.705Z,0.10
2018-02-17T03:46:12.327Z,0.00
2018-02-17T03:48:39.850Z,0.00
2018-02-17T03:51:08.166Z,0.10
2018-02-17T03:53:35.714Z,0.10
2018-02-17T03:56:03.242Z,0.10
2018-02-17T03:58:30.837Z,0.10
2018-02-17T04:00:58.356Z,0.10
2018-02-17T04:03:26.667Z,0.10
2018-02-17T04:05:54.185Z,0.10
2018-02-17T04:08:21.721Z,0.10
2018-02-17T04:10:49.243Z,0.10
2018-02-17T04:13:16.791Z,0.10
2018-02-17T04:15:45.087Z,0.10
2018-02-17T04:18:13.065Z,0.10
2018-02-17T04:20:40.598Z,0.10
2018-02-17T04:23:08.904Z,0.20
2018-02-17T04:25:36.470Z,0.10
2018-02-17T04:28:04.017Z,0.20
2018-02-17T04:30:31.534Z,0.10
2018-02-17T04:32:59.049Z,0.10
2018-02-17T04:35:26.586Z,0.10
2018-02-17T04:37:54.107Z,0.00
2018-02-17T04:40:26.075Z,0.00
2018-02-17T04:46:10.126Z,0.10
2018-02-17T04:48:38.442Z,0.10
2018-02-17T04:51:20.561Z,0.00
2018-02-17T04:53:58.936Z,0.00
2018-02-17T04:56:41.248Z,0.00
2018-02-17T05:02:15.126Z,0.00
2018-02-17T05:04:43.259Z,0.00
2018-02-17T05:07:13.158Z,0.00
2018-02-17T05:09:40.703Z,0.00
2018-02-17T05:12:08.216Z,0.00
2018-02-17T05:17:43.942Z,0.10
2018-02-17T05:20:12.394Z,0.10
2018-02-17T05:22:40.370Z,0.10
2018-02-17T05:25:13.486Z,0.10
2018-02-17T05:27:43.492Z,0.10
2018-02-17T05:33:14.406Z,0.10
2018-02-17T05:35:57.738Z,0.00
2018-02-17T05:38:25.254Z,0.00
2018-02-17T05:41:04.649Z,0.00
2018-02-17T05:43:32.162Z,0.00
2018-02-17T05:48:58.326Z,0.00
2018-02-17T05:51:26.643Z,0.00
2018-02-17T05:53:54.161Z,0.00
2018-02-17T05:56:22.461Z,0.10
2018-02-17T05:58:49.981Z,0.00
2018-02-17T06:01:17.565Z,0.00
2018-02-17T06:03:45.848Z,0.00
2018-02-17T06:06:13.425Z,0.00
2018-02-17T06:08:40.961Z,0.00
2018-02-17T06:11:09.237Z,0.10
2018-02-17T06:13:37.646Z,0.00
2018-02-17T06:16:05.162Z,0.00
2018-02-17T06:18:33.485Z,0.00
2018-02-17T06:21:01.011Z,-0.10
2018-02-17T06:23:29.314Z,-0.10
2018-02-17T06:25:56.885Z,-0.10
2018-02-17T06:28:24.418Z,0.00
2018-02-17T06:30:52.702Z,0.00
2018-02-17T06:33:20.234Z,0.00
2018-02-17T06:35:47.754Z,-0.10
2018-02-17T06:38:15.306Z,-0.10
2018-02-17T06:40:42.829Z,-0.10
2018-02-17T06:43:11.245Z,-0.10
2018-02-17T06:45:38.764Z,-0.10
2018-02-17T06:48:07.077Z,-0.10
2018-02-17T06:50:34.621Z,-0.10
2018-02-17T06:53:02.143Z,-0.10
2018-02-17T06:55:29.692Z,-0.10
2018-02-17T06:57:57.218Z,0.00
2018-02-17T07:00:24.753Z,0.00
2018-02-17T07:02:53.037Z,-0.10
2018-02-17T07:05:20.587Z,-0.10
2018-02-17T07:07:48.873Z,-0.20
2018-02-17T07:10:16.410Z,-0.20
2018-02-17T07:12:44.702Z,-0.20
2018-02-17T07:15:13.102Z,-0.10
2018-02-17T07:17:41.086Z,-0.10
2018-02-17T07:20:08.784Z,-0.10
2018-02-17T07:22:36.505Z,-0.10
2018-02-17T07:25:04.052Z,-0.10
2018-02-17T07:27:31.768Z,-0.20
2018-02-17T07:30:00.083Z,-0.20
2018-02-17T07:32:28.386Z,-0.20
2018-02-17T07:34:55.909Z,-0.20
2018-02-17T07:37:24.217Z,-0.10
2018-02-17T07:39:51.737Z,-0.10
2018-02-17T07:42:19.272Z,0.00
2018-02-17T07:44:46.785Z,0.00
2018-02-17T07:47:14.321Z,0.00
2018-02-17T07:49:41.837Z,0.00
2018-02-17T07:52:09.374Z,0.00
2018-02-17T07:54:36.889Z,0.00
2018-02-17T07:57:04.438Z,-0.10
2018-02-17T07:59:31.970Z,-0.10
2018-02-17T08:01:59.532Z,0.00
2018-02-17T08:04:27.050Z,0.00
2018-02-17T08:06:55.336Z,0.10
2018-02-17T08:09:23.648Z,0.10
2018-02-17T08:11:51.174Z,0.10
2018-02-17T08:14:19.478Z,0.20
2018-02-17T08:16:47.071Z,0.20
2018-02-17T08:19:14.613Z,0.20
2018-02-17T08:21:42.126Z,0.30
2018-02-17T08:24:10.429Z,0.30
2018-02-17T08:26:37.945Z,0.30
2018-02-17T08:29:05.481Z,0.30
2018-02-17T08:31:32.998Z,0.40
2018-02-17T08:34:01.299Z,0.40
2018-02-17T08:36:28.825Z,0.40
2018-02-17T08:38:57.129Z,0.50
2018-02-17T08:41:24.705Z,0.50
2018-02-17T08:43:52.237Z,0.50
2018-02-17T08:46:19.760Z,0.50
2018-02-17T08:48:47.381Z,0.50
2018-02-17T08:51:14.892Z,0.50
2018-02-17T08:53:42.505Z,0.60
2018-02-17T08:56:10.021Z,0.60
2018-02-17T08:58:38.330Z,0.80
2018-02-17T09:01:05.855Z,0.70
2018-02-17T09:03:33.393Z,0.80
2018-02-17T09:06:00.910Z,0.90
2018-02-17T09:08:28.446Z,0.90
2018-02-17T09:10:56.737Z,1.00
2018-02-17T09:13:25.042Z,0.90
2018-02-17T09:15:52.609Z,0.90
2018-02-17T09:18:20.159Z,1.00
2018-02-17T09:20:47.674Z,1.10
2018-02-17T09:23:15.193Z,1.10
2018-02-17T09:25:42.734Z,1.10
2018-02-17T09:28:10.257Z,1.10
2018-02-17T09:30:37.806Z,1.20
2018-02-17T09:33:05.322Z,1.20
2018-02-17T09:35:32.852Z,1.30
2018-02-17T09:38:01.169Z,1.30
2018-02-17T09:40:28.722Z,1.30
2018-02-17T09:42:56.237Z,1.30
2018-02-17T09:45:23.777Z,1.30
2018-02-17T09:47:51.297Z,1.30
2018-02-17T09:50:18.829Z,1.40
2018-02-17T09:52:47.114Z,1.40
2018-02-17T09:55:15.422Z,1.40
2018-02-17T09:57:42.945Z,1.30
2018-02-17T10:00:11.253Z,1.50
2018-02-17T10:02:38.777Z,1.40
2018-02-17T10:05:07.086Z,1.50
2018-02-17T10:07:34.614Z,1.50
2018-02-17T10:10:02.925Z,1.60
2018-02-17T10:12:30.447Z,1.60
2018-02-17T10:14:57.987Z,1.60
2018-02-17T10:17:25.519Z,1.70
2018-02-17T10:19:53.062Z,1.80
2018-02-17T10:22:20.586Z,1.80
2018-02-17T10:24:48.122Z,1.70
2018-02-17T10:27:15.637Z,1.80
2018-02-17T10:29:43.222Z,1.70
2018-02-17T10:32:10.781Z,1.70
2018-02-17T10:34:38.335Z,1.70
2018-02-17T10:37:05.859Z,1.70
2018-02-17T10:39:34.153Z,1.70
2018-02-17T10:42:02.463Z,1.70
2018-02-17T10:44:29.985Z,1.70
2018-02-17T10:46:58.287Z,1.70
2018-02-17T10:49:25.853Z,1.70
2018-02-17T10:51:53.391Z,1.70
2018-02-17T10:54:21.678Z,1.80
2018-02-17T10:56:49.221Z,1.80
2018-02-17T10:59:17.510Z,1.90
2018-02-17T11:01:45.058Z,1.80
2018-02-17T11:04:13.350Z,1.90
2018-02-17T11:06:40.889Z,1.90
2018-02-17T11:09:08.415Z,1.90
2018-02-17T11:11:35.959Z,2.00
2018-02-17T11:14:03.480Z,2.00
2018-02-17T11:16:31.894Z,2.20
2018-02-17T11:18:59.414Z,2.10
2018-02-17T11:21:27.701Z,2.20
2018-02-17T11:23:56.004Z,2.20
2018-02-17T11:26:23.526Z,2.20
2018-02-17T11:28:51.831Z,2.40
2018-02-17T11:31:19.356Z,2.30
2018-02-17T11:33:47.607Z,2.40
2018-02-17T11:36:15.125Z,2.50
2018-02-17T11:38:42.669Z,2.60
2018-02-17T11:41:10.958Z,2.60
2018-02-17T11:43:38.498Z,2.60
2018-02-17T11:46:06.065Z,2.70
2018-02-17T11:48:33.582Z,2.70
2018-02-17T11:51:01.110Z,2.80
2018-02-17T11:53:28.654Z,2.80
2018-02-17T11:55:56.949Z,2.90
2018-02-17T11:58:24.505Z,2.90
2018-02-17T12:00:52.034Z,2.90
2018-02-17T12:03:19.577Z,2.90
2018-02-17T12:05:47.101Z,2.90
2018-02-17T12:08:14.642Z,3.00
2018-02-17T12:10:42.176Z,3.00
2018-02-17T12:13:10.492Z,3.00
2018-02-17T12:15:38.017Z,3.00
2018-02-17T12:18:06.307Z,3.10
2018-02-17T12:20:34.612Z,3.10
2018-02-17T12:23:02.146Z,3.10
2018-02-17T12:25:30.458Z,3.10
2018-02-17T12:27:57.981Z,3.10
2018-02-17T12:30:26.289Z,3.10
2018-02-17T12:32:53.811Z,3.10
2018-02-17T12:35:22.114Z,3.10
2018-02-17T12:37:49.641Z,3.10
2018-02-17T12:40:17.186Z,3.20
2018-02-17T12:42:44.717Z,3.20
2018-02-17T12:45:12.263Z,3.20
2018-02-17T12:47:39.787Z,3.20
2018-02-17T12:50:07.334Z,3.10
2018-02-17T12:52:34.858Z,3.10
2018-02-17T12:55:02.406Z,3.20
2018-02-17T12:57:29.934Z,3.20
2018-02-17T12:59:58.245Z,3.30
2018-02-17T13:02:25.765Z,3.30
2018-02-17T13:04:53.313Z,3.40
2018-02-17T13:07:20.829Z,3.40
2018-02-17T13:09:48.354Z,3.40
2018-02-17T13:12:16.662Z,3.40
2018-02-17T13:14:44.188Z,3.40
2018-02-17T13:17:12.494Z,3.50
2018-02-17T13:19:40.019Z,3.40
2018-02-17T13:22:07.570Z,3.50
2018-02-17T13:24:35.098Z,3.50
2018-02-17T13:27:02.650Z,3.50
2018-02-17T13:29:30.178Z,3.50
2018-02-17T13:31:58.490Z,3.40
2018-02-17T13:34:26.015Z,3.40
2018-02-17T13:36:54.327Z,3.50
2018-02-17T13:39:21.856Z,3.40
2018-02-17T13:41:50.169Z,3.40
2018-02-17T13:44:17.694Z,3.50
2018-02-17T13:46:46.010Z,3.50
2018-02-17T13:49:13.530Z,3.50
2018-02-17T13:51:41.888Z,3.50
2018-02-17T13:54:09.382Z,3.50
2018-02-17T13:56:37.700Z,3.50
2018-02-17T13:59:05.227Z,3.50
2018-02-17T14:01:32.758Z,3.50
2018-02-17T14:04:00.300Z,3.50
2018-02-17T14:06:27.827Z,3.60
2018-02-17T14:08:55.367Z,3.50
2018-02-17T14:11:23.650Z,3.50
2018-02-17T14:13:51.201Z,3.50
2018-02-17T14:16:19.490Z,3.40
2018-02-17T14:18:47.029Z,3.40
2018-02-17T14:21:15.322Z,3.50
2018-02-17T14:23:42.867Z,3.50
2018-02-17T14:26:11.161Z,3.50
2018-02-17T14:28:39.470Z,3.60
2018-02-17T14:31:06.994Z,3.50
2018-02-17T14:33:35.305Z,3.50
2018-02-17T14:36:02.834Z,3.40
2018-02-17T14:38:31.142Z,3.30
2018-02-17T14:40:58.665Z,3.30
2018-02-17T14:43:26.994Z,3.30
2018-02-17T14:45:54.516Z,3.30
2018-02-17T14:48:22.805Z,3.20
2018-02-17T14:50:50.345Z,3.10
2018-02-17T14:53:18.641Z,3.10
2018-02-17T14:55:46.951Z,3.10
2018-02-17T14:58:14.478Z,3.00
2018-02-17T15:00:42.791Z,3.00
2018-02-17T15:03:10.313Z,3.00
2018-02-17T15:05:38.623Z,3.00
2018-02-17T15:08:06.144Z,3.00
2018-02-17T15:10:34.458Z,2.90
2018-02-17T15:13:02.034Z,2.90
2018-02-17T15:15:29.542Z,2.90
2018-02-17T15:17:57.953Z,2.80
2018-02-17T15:20:25.386Z,2.80
2018-02-17T15:22:53.684Z,2.70
2018-02-17T15:25:21.234Z,2.70
2018-02-17T15:27:49.517Z,2.70
2018-02-17T15:30:17.826Z,2.60
2018-02-17T15:32:45.355Z,2.60
2018-02-17T15:35:12.914Z,2.60
2018-02-17T15:37:40.485Z,2.60
2018-02-17T15:40:08.752Z,2.60
2018-02-17T15:42:37.060Z,2.50
2018-02-17T15:45:04.586Z,2.50
2018-02-17T15:47:32.894Z,2.50
2018-02-17T15:50:00.422Z,2.50
2018-02-17T15:52:27.961Z,2.50
2018-02-17T15:54:55.486Z,2.50
2018-02-17T15:57:23.026Z,2.50
2018-02-17T15:59:50.542Z,2.40
2018-02-17T16:02:18.085Z,2.40
2018-02-17T16:04:45.614Z,2.40
2018-02-17T16:07:13.163Z,2.40
2018-02-17T16:09:40.764Z,2.40
2018-02-17T16:12:08.311Z,2.40
2018-02-17T16:14:35.825Z,2.40
2018-02-17T16:17:04.137Z,2.30
2018-02-17T16:19:31.658Z,2.30
2018-02-17T16:21:59.198Z,2.30
2018-02-17T16:24:26.715Z,2.20
2018-02-17T16:26:54.261Z,2.20
2018-02-17T16:29:22.562Z,2.10
2018-02-17T16:31:50.077Z,2.10
2018-02-17T16:34:17.632Z,2.10
2018-02-17T16:36:45.153Z,2.10
2018-02-17T16:39:12.689Z,2.00
2018-02-17T16:41:40.209Z,2.00
2018-02-17T16:44:07.745Z,2.00
2018-02-17T16:46:35.265Z,1.90
2018-02-17T16:49:02.812Z,1.90
2018-02-17T16:51:31.098Z,1.90
2018-02-17T16:53:59.398Z,1.90
2018-02-17T16:56:26.913Z,1.90
2018-02-17T16:58:54.449Z,1.90
2018-02-17T17:01:21.966Z,1.80
2018-02-17T17:03:49.501Z,1.70
2018-02-17T17:06:17.794Z,1.60
2018-02-17T17:08:46.104Z,1.50
2018-02-17T17:11:13.618Z,1.50
2018-02-17T17:13:41.942Z,1.50
2018-02-17T17:16:09.460Z,1.50
2018-02-17T17:18:37.745Z,1.40
2018-02-17T17:21:06.045Z,1.40
2018-02-17T17:23:33.564Z,1.40
2018-02-17T17:26:01.109Z,1.40
2018-02-17T17:28:28.626Z,1.40
2018-02-17T17:30:56.162Z,1.40
2018-02-17T17:33:24.451Z,1.40
2018-02-17T17:35:51.991Z,1.30
2018-02-17T17:38:20.276Z,1.30
2018-02-17T17:40:48.581Z,1.30
2018-02-17T17:43:16.100Z,1.30
2018-02-17T17:45:43.637Z,1.30
2018-02-17T17:48:11.158Z,1.20
2018-02-17T17:50:38.690Z,1.10
2018-02-17T17:53:06.978Z,1.00
2018-02-17T17:55:35.273Z,1.00
2018-02-17T17:58:02.793Z,1.00
2018-02-17T18:00:30.327Z,0.90
2018-02-17T18:02:58.605Z,0.90
2018-02-17T18:05:26.142Z,0.90
2018-02-17T18:07:53.662Z,0.90
2018-02-17T18:10:21.194Z,0.80
2018-02-17T18:12:48.830Z,0.70
2018-02-17T18:15:16.349Z,0.60
2018-02-17T18:17:44.649Z,0.50
2018-02-17T18:20:12.181Z,0.50
2018-02-17T18:22:39.712Z,0.50
2018-02-17T18:25:07.227Z,0.40
2018-02-17T18:27:34.769Z,0.40
2018-02-17T18:30:03.060Z,0.30
2018-02-17T18:32:31.368Z,0.20
2018-02-17T18:34:58.872Z,0.20
2018-02-17T18:37:26.408Z,0.20
2018-02-17T18:39:53.927Z,0.20
2018-02-17T18:42:21.461Z,0.10
2018-02-17T18:44:48.973Z,0.10
2018-02-17T18:47:16.512Z,0.10
2018-02-17T18:49:44.030Z,0.10
2018-02-17T18:52:11.561Z,0.00
2018-02-17T18:54:39.081Z,-0.10
2018-02-17T18:57:07.381Z,-0.10
2018-02-17T18:59:34.894Z,-0.10
2018-02-17T19:02:02.438Z,-0.20
2018-02-17T19:04:29.954Z,-0.20
2018-02-17T19:06:57.489Z,-0.20
2018-02-17T19:09:25.777Z,-0.30
2018-02-17T19:11:54.088Z,-0.30
2018-02-17T19:14:21.614Z,-0.30
2018-02-17T19:16:49.917Z,-0.40
2018-02-17T19:19:17.438Z,-0.40
2018-02-17T19:21:44.959Z,-0.40
2018-02-17T19:24:12.499Z,-0.40
2018-02-17T19:26:40.026Z,-0.30
2018-02-17T19:29:08.334Z,-0.30
2018-02-17T19:31:35.853Z,-0.30
2018-02-17T19:34:03.394Z,-0.30
2018-02-17T19:36:30.913Z,-0.30
2018-02-17T19:38:58.453Z,-0.30
2018-02-17T19:41:26.735Z,-0.30
2018-02-17T19:43:54.277Z,-0.40
2018-02-17T19:46:22.566Z,-0.30
2018-02-17T19:48:50.874Z,-0.20
2018-02-17T19:51:18.406Z,-0.30
2018-02-17T19:53:46.710Z,-0.20
2018-02-17T19:56:14.233Z,-0.20
2018-02-17T19:58:42.552Z,-0.30
2018-02-17T20:01:10.069Z,-0.30
2018-02-17T20:03:38.381Z,-0.30
2018-02-17T20:06:05.898Z,-0.40
2018-02-17T20:08:33.512Z,-0.30
2018-02-17T20:11:01.027Z,-0.30
2018-02-17T20:13:28.638Z,-0.30
2018-02-17T20:15:56.169Z,-0.30
2018-02-17T20:18:23.702Z,-0.30
2018-02-17T20:20:51.241Z,-0.20
2018-02-17T20:23:18.765Z,-0.20
2018-02-17T20:25:46.310Z,-0.20
2018-02-17T20:28:14.606Z,-0.10
2018-02-17T20:30:42.154Z,-0.10
2018-02-17T20:33:09.685Z,0.00
2018-02-17T20:35:37.217Z,0.00
2018-02-17T20:38:04.733Z,0.00
2018-02-17T20:40:32.322Z,0.10
2018-02-17T20:42:59.846Z,0.10
2018-02-17T20:45:28.154Z,0.10
2018-02-17T20:47:55.677Z,0.00
2018-02-17T20:50:23.985Z,0.00
2018-02-17T20:52:51.502Z,0.00
2018-02-17T20:55:19.054Z,0.00
2018-02-17T20:57:46.677Z,0.00
2018-02-17T21:00:14.194Z,0.00
2018-02-17T21:02:42.511Z,0.00
2018-02-17T21:05:10.082Z,-0.10
2018-02-17T21:07:37.642Z,0.00
2018-02-17T21:10:05.166Z,-0.10
2018-02-17T21:12:33.468Z,-0.20
2018-02-17T21:15:00.991Z,-0.20
2018-02-17T21:17:28.674Z,-0.30
2018-02-17T21:19:56.986Z,-0.40
2018-02-17T21:22:24.526Z,-0.40
2018-02-17T21:24:52.054Z,-0.40
2018-02-17T21:27:19.667Z,-0.50
2018-02-17T21:29:47.189Z,-0.60
2018-02-17T21:32:15.493Z,-0.70
2018-02-17T21:34:43.013Z,-0.80
2018-02-17T21:37:10.561Z,-0.80
2018-02-17T21:39:38.078Z,-0.90
2018-02-17T21:42:05.624Z,-1.00
2018-02-17T21:44:33.202Z,-1.00
2018-02-17T21:47:00.780Z,-1.00
2018-02-17T21:49:28.295Z,-1.10
2018-02-17T21:51:56.606Z,-1.20
2018-02-17T21:54:24.131Z,-1.20
2018-02-17T21:56:52.421Z,-1.30
2018-02-17T21:59:20.001Z,-1.30
2018-02-17T22:01:47.562Z,-1.40
2018-02-17T22:04:15.109Z,-1.40
2018-02-17T22:06:42.634Z,-1.50
2018-02-17T22:09:10.173Z,-1.50
2018-02-17T22:11:37.700Z,-1.60
2018-02-17T22:14:05.264Z,-1.50
2018-02-17T22:16:32.822Z,-1.50
2018-02-17T22:19:00.372Z,-1.60
2018-02-17T22:21:27.951Z,-1.60
2018-02-17T22:23:55.499Z,-1.60
2018-02-17T22:26:23.022Z,-1.60
2018-02-17T22:28:51.330Z,-1.60
2018-02-17T22:31:18.850Z,-1.60
2018-02-17T22:33:46.458Z,-1.70
2018-02-17T22:36:14.002Z,-1.70
2018-02-17T22:38:41.519Z,-1.70
2018-02-17T22:41:09.062Z,-1.70
2018-02-17T22:43:36.585Z,-1.80
2018-02-17T22:46:04.122Z,-1.80
2018-02-17T22:48:32.420Z,-1.90
2018-02-17T22:50:59.961Z,-1.80
2018-02-17T22:53:28.246Z,-1.90
2018-02-17T22:55:56.554Z,-1.90
2018-02-17T22:58:24.086Z,-1.90
2018-02-17T23:00:52.393Z,-2.00
2018-02-17T23:03:19.914Z,-2.00
2018-02-17T23:05:48.224Z,-2.00
2018-02-17T23:08:15.745Z,-2.00
2018-02-17T23:10:44.053Z,-2.00
2018-02-17T23:13:11.573Z,-2.10
2018-02-17T23:15:39.122Z,-2.10
2018-02-17T23:18:06.649Z,-2.10
2018-02-17T23:20:34.190Z,-2.10
2018-02-17T23:23:01.729Z,-2.10
2018-02-17T23:25:30.017Z,-2.10
2018-02-17T23:27:58.319Z,-2.10
2018-02-17T23:30:25.847Z,-2.10
2018-02-17T23:32:54.154Z,-2.20
2018-02-17T23:35:21.673Z,-2.20
2018-02-17T23:40:23.914Z,-2.30
2018-02-17T23:42:51.454Z,-2.30
2018-02-17T23:45:18.977Z,-2.40
2018-02-17T23:47:46.523Z,-2.40
2018-02-17T23:50:14.057Z,-2.40
2018-02-17T23:52:41.619Z,-2.50
2018-02-17T23:55:09.138Z,-2.50
2018-02-17T23:57:37.446Z,-2.50
